Time;durP1;ratioP1;P1;durP2;ratioP2;P2;SDS_P1;SDS_P2;PMS_P1;PMS_P2;Temp;Humidity;BMP_temperature;BMP_pressure;BME280_temperature;BME280_humidity;BME280_pressure;Samples;Min_cycle;Max_cycle;Signal;HPM_P1;HPM_P2
2022/07/28 00:00:19;;;;;;;2.20;0.83;;;23.10;99.90;;;;;;1039386;28;20022;-71
2022/07/28 00:00:50;;;;;;;1.20;0.77;;;23.10;99.90;;;;;;1039419;28;20088;-70
2022/07/28 00:01:20;;;;;;;1.40;0.70;;;23.00;99.90;;;;;;1039387;28;20044;-70
2022/07/28 00:01:51;;;;;;;0.90;0.70;;;23.00;99.90;;;;;;1039738;28;20839;-71
2022/07/28 00:02:22;;;;;;;1.80;0.73;;;23.00;99.90;;;;;;1042004;28;20472;-69
2022/07/28 00:02:53;;;;;;;1.02;0.63;;;23.00;99.90;;;;;;1043194;28;20048;-70
2022/07/28 00:03:23;;;;;;;1.30;0.70;;;23.00;99.90;;;;;;1043300;28;20016;-71
2022/07/28 00:03:54;;;;;;;0.90;0.70;;;23.00;99.90;;;;;;1043569;28;20475;-70
2022/07/28 00:04:24;;;;;;;2.43;1.00;;;23.00;99.90;;;;;;1043363;28;20488;-71
2022/07/28 00:04:55;;;;;;;1.30;0.60;;;23.00;99.90;;;;;;1043866;28;20032;-71
2022/07/28 00:05:26;;;;;;;2.17;0.70;;;23.00;99.90;;;;;;1043660;28;20013;-69
2022/07/28 00:05:56;;;;;;;0.87;0.83;;;23.00;99.90;;;;;;1043721;28;20028;-70
2022/07/28 00:06:27;;;;;;;1.67;0.60;;;23.00;99.90;;;;;;1043677;28;20070;-70
2022/07/28 00:06:58;;;;;;;1.15;0.65;;;23.00;99.90;;;;;;1043320;28;20515;-69
2022/07/28 00:07:29;;;;;;;1.37;0.73;;;23.00;99.90;;;;;;1043273;28;20021;-71
2022/07/28 00:07:59;;;;;;;1.80;0.70;;;23.00;99.90;;;;;;1043330;28;20094;-70
2022/07/28 00:08:30;;;;;;;0.73;0.60;;;23.00;99.90;;;;;;1043468;28;20021;-70
2022/07/28 00:09:01;;;;;;;2.17;0.82;;;22.90;99.90;;;;;;1043813;28;20369;-70
2022/07/28 00:09:31;;;;;;;2.53;1.20;;;23.00;99.90;;;;;;1043702;28;20498;-69
2022/07/28 00:10:02;;;;;;;2.50;0.90;;;23.00;99.90;;;;;;1043770;28;20017;-70
2022/07/28 00:10:33;;;;;;;1.42;0.80;;;22.90;99.90;;;;;;1043526;28;20032;-70
2022/07/28 00:11:04;;;;;;;0.87;0.60;;;22.90;99.90;;;;;;1043503;28;20036;-70
2022/07/28 00:11:34;;;;;;;2.50;1.00;;;22.90;99.90;;;;;;1043953;28;20020;-69
2022/07/28 00:12:05;;;;;;;1.00;0.90;;;22.90;99.90;;;;;;1043629;28;20017;-70
2022/07/28 00:12:35;;;;;;;1.23;0.87;;;22.90;99.90;;;;;;1043648;28;20021;-71
2022/07/28 00:13:06;;;;;;;2.03;0.70;;;22.90;99.90;;;;;;1043688;28;20028;-70
2022/07/28 00:13:37;;;;;;;0.90;0.63;;;22.90;99.90;;;;;;1043690;28;20021;-69
2022/07/28 00:14:07;;;;;;;1.57;0.80;;;22.90;99.90;;;;;;1043419;28;20117;-70
2022/07/28 00:14:38;;;;;;;0.60;0.60;;;22.90;99.90;;;;;;1043547;28;20401;-71
2022/07/28 00:15:09;;;;;;;1.40;0.70;;;22.90;99.90;;;;;;1043260;28;20121;-70
2022/07/28 00:15:39;;;;;;;0.90;0.60;;;22.90;99.90;;;;;;1043499;28;20029;-71
2022/07/28 00:16:10;;;;;;;1.23;0.70;;;22.90;99.90;;;;;;1043143;28;20119;-70
2022/07/28 00:16:40;;;;;;;0.67;0.67;;;22.90;99.90;;;;;;1043598;28;20541;-69
2022/07/28 00:17:11;;;;;;;3.53;1.10;;;22.90;99.90;;;;;;1043114;28;20634;-69
2022/07/28 00:17:41;;;;;;;1.73;0.90;;;22.90;99.90;;;;;;1043855;28;20357;-69
2022/07/28 00:18:12;;;;;;;2.07;0.83;;;22.90;99.90;;;;;;1043498;28;20524;-71
2022/07/28 00:18:43;;;;;;;2.87;1.00;;;22.90;99.90;;;;;;1043890;28;20021;-69
2022/07/28 00:19:13;;;;;;;1.37;0.80;;;22.90;99.90;;;;;;1043712;28;20017;-70
2022/07/28 00:19:44;;;;;;;2.03;1.17;;;22.90;99.90;;;;;;1043763;28;20357;-70
2022/07/28 00:20:14;;;;;;;0.93;0.70;;;22.90;99.90;;;;;;1043541;28;20021;-70
2022/07/28 00:20:45;;;;;;;2.03;0.70;;;22.90;99.90;;;;;;1043600;28;20032;-70
2022/07/28 00:21:15;;;;;;;0.70;0.70;;;22.90;99.90;;;;;;1043205;28;20017;-70
2022/07/28 00:21:46;;;;;;;1.77;0.60;;;22.90;99.90;;;;;;1043471;28;20641;-70
2022/07/28 00:22:17;;;;;;;3.20;0.97;;;22.90;99.90;;;;;;1043173;28;20037;-70
2022/07/28 00:22:48;;;;;;;1.13;0.60;;;22.90;99.90;;;;;;1043322;28;20021;-70
2022/07/28 00:23:18;;;;;;;2.20;0.70;;;22.80;99.90;;;;;;1043613;28;20021;-71
2022/07/28 00:23:49;;;;;;;1.63;0.80;;;22.90;99.90;;;;;;1043713;28;20027;-70
2022/07/28 00:24:20;;;;;;;1.47;0.70;;;22.90;99.90;;;;;;1043751;28;20551;-69
2022/07/28 00:24:50;;;;;;;1.00;0.83;;;22.90;99.90;;;;;;1043495;28;20021;-70
2022/07/28 00:25:21;;;;;;;0.93;0.73;;;22.90;99.90;;;;;;1043395;28;20057;-70
2022/07/28 00:25:52;;;;;;;1.30;0.80;;;22.90;99.90;;;;;;1043303;28;20328;-70
2022/07/28 00:26:23;;;;;;;2.10;0.80;;;22.90;99.90;;;;;;1043205;28;20527;-70
2022/07/28 00:26:53;;;;;;;1.15;0.70;;;22.90;99.90;;;;;;1043084;28;20025;-69
2022/07/28 00:27:24;;;;;;;0.90;0.70;;;22.90;99.90;;;;;;1043446;28;20052;-70
2022/07/28 00:27:55;;;;;;;1.13;0.80;;;22.90;99.90;;;;;;1043098;28;20028;-70
2022/07/28 00:28:25;;;;;;;1.27;0.70;;;22.90;99.90;;;;;;1043322;28;20456;-70
2022/07/28 00:28:57;;;;;;;1.30;0.83;;;22.80;99.90;;;;;;1043161;28;20545;-70
2022/07/28 00:29:27;;;;;;;1.15;0.70;;;22.90;99.90;;;;;;1043131;28;20049;-69
2022/07/28 00:29:58;;;;;;;1.13;0.83;;;22.90;99.90;;;;;;1043147;28;20049;-70
2022/07/28 00:30:29;;;;;;;1.37;0.80;;;22.90;99.90;;;;;;1043705;28;20754;-70
2022/07/28 00:31:00;;;;;;;1.27;0.88;;;22.90;99.90;;;;;;1043555;28;20116;-70
2022/07/28 00:31:31;;;;;;;1.38;0.80;;;22.90;99.90;;;;;;1043195;28;20017;-70
2022/07/28 00:32:02;;;;;;;1.33;0.80;;;22.90;99.90;;;;;;1043160;28;20037;-69
2022/07/28 00:32:32;;;;;;;2.87;0.80;;;22.80;99.90;;;;;;1039320;28;20795;-70
2022/07/28 00:33:03;;;;;;;2.10;0.80;;;22.80;99.90;;;;;;1039113;28;20803;-70
2022/07/28 00:33:34;;;;;;;2.63;1.00;;;22.80;99.90;;;;;;1043427;28;20266;-69
2022/07/28 00:34:04;;;;;;;0.70;0.60;;;22.80;99.90;;;;;;1043136;28;20431;-71
2022/07/28 00:34:35;;;;;;;1.10;0.70;;;22.80;99.90;;;;;;1043253;28;20017;-70
2022/07/28 00:35:06;;;;;;;1.23;0.80;;;22.70;99.90;;;;;;1043263;28;20012;-70
2022/07/28 00:35:37;;;;;;;0.70;0.70;;;22.70;99.90;;;;;;1043698;28;20480;-69
2022/07/28 00:36:09;;;;;;;2.30;1.23;;;22.70;99.90;;;;;;1043015;28;20484;-70
2022/07/28 00:36:39;;;;;;;2.22;0.90;;;22.70;99.90;;;;;;1043104;28;20028;-70
2022/07/28 00:37:10;;;;;;;1.10;0.70;;;22.70;99.90;;;;;;1043036;28;20044;-69
2022/07/28 00:37:40;;;;;;;1.50;0.83;;;22.70;99.90;;;;;;1043346;28;20063;-69
2022/07/28 00:38:11;;;;;;;0.90;0.70;;;22.70;99.90;;;;;;1039022;28;20013;-70
2022/07/28 00:38:42;;;;;;;1.45;0.90;;;22.70;99.90;;;;;;1039071;28;20089;-69
2022/07/28 00:39:13;;;;;;;0.80;0.70;;;22.70;99.90;;;;;;1038305;28;20136;-70
2022/07/28 00:39:44;;;;;;;1.42;0.80;;;22.80;99.90;;;;;;1039421;28;20029;-69
2022/07/28 00:40:14;;;;;;;1.30;0.80;;;22.80;99.90;;;;;;1042913;28;20017;-70
2022/07/28 00:41:35;;;;;;;0.60;0.50;;;22.80;99.90;;;;;;1043525;28;20024;-70
2022/07/28 00:42:06;;;;;;;0.50;0.50;;;22.80;99.90;;;;;;1043067;28;20116;-70
2022/07/28 00:42:37;;;;;;;2.20;1.20;;;22.80;99.90;;;;;;1043180;28;20017;-70
2022/07/28 00:43:07;;;;;;;2.47;0.80;;;22.80;99.90;;;;;;1043062;28;20435;-72
2022/07/28 00:43:41;;;;;;;1.90;0.67;;;22.80;99.90;;;;;;1043345;28;20543;-71
2022/07/28 00:44:11;;;;;;;3.33;1.20;;;22.80;99.90;;;;;;1043134;28;20023;-70
2022/07/28 00:44:42;;;;;;;1.17;0.80;;;22.80;99.90;;;;;;1043183;28;20013;-70
2022/07/28 00:45:12;;;;;;;1.10;0.70;;;22.70;99.90;;;;;;1043583;28;20666;-69
2022/07/28 00:45:43;;;;;;;1.27;0.60;;;22.70;99.90;;;;;;1043591;28;20071;-72
2022/07/28 00:46:16;;;;;;;1.23;0.77;;;22.70;99.90;;;;;;1043910;28;20017;-69
2022/07/28 00:46:47;;;;;;;1.60;0.73;;;22.70;99.90;;;;;;1043411;28;20413;-69
2022/07/28 00:47:18;;;;;;;2.42;0.90;;;22.70;99.90;;;;;;1043789;28;20012;-70
2022/07/28 00:47:49;;;;;;;2.00;0.82;;;22.70;99.90;;;;;;1043152;28;20045;-68
2022/07/28 00:48:20;;;;;;;1.97;0.90;;;22.70;99.90;;;;;;1042640;28;20011;-70
2022/07/28 00:48:53;;;;;;;0.93;0.70;;;22.70;99.90;;;;;;1039374;28;20457;-70
2022/07/28 00:49:24;;;;;;;0.73;0.50;;;22.60;99.90;;;;;;1039515;28;20010;-70
2022/07/28 00:49:54;;;;;;;1.73;0.80;;;22.60;99.90;;;;;;1039270;28;20010;-69
2022/07/28 00:50:25;;;;;;;1.20;0.60;;;22.60;99.90;;;;;;1039645;28;20821;-70
2022/07/28 00:50:56;;;;;;;1.75;0.90;;;22.60;99.90;;;;;;1038845;28;20025;-69
2022/07/28 00:51:28;;;;;;;4.27;0.80;;;22.60;99.90;;;;;;1039313;28;20033;-70
2022/07/28 00:51:59;;;;;;;2.35;0.82;;;22.60;99.90;;;;;;1039015;28;20800;-69
2022/07/28 00:52:31;;;;;;;1.35;0.80;;;22.60;99.90;;;;;;1039014;28;20023;-69
2022/07/28 00:53:01;;;;;;;0.60;0.60;;;22.60;99.90;;;;;;1038933;28;20049;-71
2022/07/28 00:53:32;;;;;;;1.00;0.70;;;22.70;99.90;;;;;;1039524;28;20049;-70
2022/07/28 00:54:03;;;;;;;1.53;0.57;;;22.70;99.90;;;;;;1038685;28;20056;-70
2022/07/28 00:54:33;;;;;;;0.97;0.80;;;22.70;99.90;;;;;;1039587;28;20021;-70
2022/07/28 00:55:04;;;;;;;1.17;0.70;;;22.70;99.90;;;;;;1038826;28;20022;-70
2022/07/28 00:55:38;;;;;;;3.97;0.90;;;22.80;99.90;;;;;;1039496;28;20017;-69
2022/07/28 00:56:09;;;;;;;1.17;0.50;;;22.80;99.90;;;;;;1039406;28;20029;-71
2022/07/28 00:56:39;;;;;;;1.80;0.60;;;22.80;99.90;;;;;;1035169;28;20030;-70
2022/07/28 00:57:10;;;;;;;0.70;0.53;;;22.80;99.90;;;;;;1034816;28;20279;-71
2022/07/28 00:57:40;;;;;;;0.77;0.77;;;22.80;99.90;;;;;;1035111;28;20076;-70
2022/07/28 00:58:11;;;;;;;1.10;0.90;;;22.80;99.90;;;;;;1034771;28;20030;-70
2022/07/28 00:58:42;;;;;;;1.57;0.87;;;22.80;99.90;;;;;;1039780;28;20025;-74
2022/07/28 00:59:12;;;;;;;1.37;0.80;;;22.80;99.90;;;;;;1039241;28;20432;-70
2022/07/28 00:59:43;;;;;;;1.70;0.80;;;22.90;99.90;;;;;;1039577;28;20025;-70
2022/07/28 01:00:13;;;;;;;1.27;0.73;;;22.90;99.90;;;;;;1039101;28;20113;-70
2022/07/28 01:00:44;;;;;;;0.70;0.63;;;22.90;99.90;;;;;;1038958;28;20119;-69
2022/07/28 01:01:18;;;;;;;1.37;0.90;;;22.90;99.90;;;;;;1038944;28;20029;-70
2022/07/28 01:01:49;;;;;;;0.93;0.70;;;22.90;99.90;;;;;;1038767;28;20033;-69
2022/07/28 01:02:20;;;;;;;1.93;0.90;;;22.90;99.90;;;;;;1043061;28;20097;-69
2022/07/28 01:02:51;;;;;;;0.50;0.50;;;22.90;99.90;;;;;;1043162;28;20024;-70
2022/07/28 01:03:22;;;;;;;1.23;0.60;;;22.90;99.90;;;;;;1043035;28;20099;-69
2022/07/28 01:03:56;;;;;;;0.73;0.63;;;22.80;99.90;;;;;;1043000;28;20361;-69
2022/07/28 01:04:28;;;;;;;6.68;0.90;;;22.80;99.90;;;;;;1042821;28;20027;-69
2022/07/28 01:04:58;;;;;;;1.92;0.93;;;22.80;99.90;;;;;;1043142;28;20013;-68
2022/07/28 01:05:43;;;;;;;0.80;0.63;;;22.80;99.90;;;;;;1043085;28;20046;-70
2022/07/28 01:06:41;;;;;;;2.35;1.10;;;22.80;99.90;;;;;;1043041;28;20028;-68
2022/07/28 01:07:44;;;;;;;2.85;0.95;;;22.70;99.90;;;;;;1043269;28;20836;-69
2022/07/28 01:08:28;;;;;;;0.95;0.70;;;22.70;99.90;;;;;;1043609;28;20020;-69
2022/07/28 01:09:19;;;;;;;1.35;0.65;;;22.60;99.90;;;;;;1043024;28;20029;-69
2022/07/28 01:10:20;;;;;;;2.70;0.93;;;22.60;99.90;;;;;;1042907;28;20100;-69
2022/07/28 01:11:03;;;;;;;2.45;1.05;;;22.60;99.90;;;;;;1043104;28;20049;-68
2022/07/28 01:11:54;;;;;;;1.45;0.70;;;22.60;99.90;;;;;;1043713;28;20739;-70
2022/07/28 01:12:35;;;;;;;1.52;0.90;;;22.50;99.90;;;;;;1043741;28;20026;-69
2022/07/28 01:13:20;;;;;;;2.03;0.60;;;22.60;99.90;;;;;;1043444;28;20111;-69
2022/07/28 01:14:07;;;;;;;1.48;0.73;;;22.60;99.90;;;;;;1039103;28;20040;-70
2022/07/28 01:15:08;;;;;;;1.67;1.00;;;22.60;99.90;;;;;;1039365;28;20551;-70
2022/07/28 01:15:44;;;;;;;0.70;0.70;;;22.60;99.90;;;;;;1039142;28;20053;-68
2022/07/28 01:16:15;;;;;;;0.98;0.70;;;22.60;99.90;;;;;;1039213;28;20048;-69
2022/07/28 01:16:57;;;;;;;0.70;0.60;;;22.60;99.90;;;;;;1038844;28;20037;-68
2022/07/28 01:18:03;;;;;;;1.67;1.00;;;22.60;99.90;;;;;;1039113;28;20130;-69
2022/07/28 01:18:46;;;;;;;1.85;0.82;;;22.60;99.90;;;;;;1039266;28;20022;-68
2022/07/28 01:19:44;;;;;;;3.00;1.10;;;22.50;99.90;;;;;;1039277;28;20128;-70
2022/07/28 01:20:29;;;;;;;1.60;0.70;;;22.50;99.90;;;;;;1039153;28;20064;-71
2022/07/28 01:21:07;;;;;;;1.00;0.70;;;22.50;99.90;;;;;;1038609;28;20593;-70
2022/07/28 01:21:40;;;;;;;;;;;22.50;99.90;;;;;;1039593;28;20485;-70
2022/07/28 01:22:18;;;;;;;1.10;0.80;;;22.50;99.90;;;;;;1038855;28;19941;-70
2022/07/28 01:23:04;;;;;;;1.75;0.80;;;22.50;99.90;;;;;;1039076;28;20094;-71
2022/07/28 01:23:40;;;;;;;2.30;1.00;;;22.50;99.90;;;;;;1039294;28;20022;-70
2022/07/28 01:24:50;;;;;;;2.05;0.98;;;22.50;99.90;;;;;;1039077;28;20597;-70
2022/07/28 01:25:29;;;;;;;1.85;0.95;;;22.50;99.90;;;;;;1038637;28;20493;-71
2022/07/28 01:26:19;;;;;;;0.98;0.80;;;22.40;99.90;;;;;;1039021;28;20673;-70
2022/07/28 01:27:02;;;;;;;4.35;1.02;;;22.40;99.90;;;;;;1039155;28;20441;-70
2022/07/28 01:27:45;;;;;;;1.67;0.80;;;22.40;99.90;;;;;;1039240;28;20554;-70
2022/07/28 01:28:38;;;;;;;1.02;0.80;;;22.40;99.90;;;;;;1039297;28;20037;-70
2022/07/28 01:29:53;;;;;;;1.77;0.85;;;22.40;99.90;;;;;;1039121;28;20021;-71
2022/07/28 01:30:50;;;;;;;;;;;22.40;99.90;;;;;;1039211;28;20079;-69
2022/07/28 01:31:24;;;;;;;1.27;1.05;;;22.40;99.90;;;;;;1034646;28;19905;-70
2022/07/28 01:32:05;;;;;;;2.40;1.17;;;22.40;99.90;;;;;;1038537;28;20167;-68
2022/07/28 01:32:58;;;;;;;1.58;0.85;;;22.40;99.90;;;;;;1034698;28;20076;-70
2022/07/28 01:33:51;;;;;;;1.45;0.70;;;22.40;99.90;;;;;;1039098;28;20095;-69
2022/07/28 01:34:31;;;;;;;3.03;0.75;;;22.40;99.90;;;;;;1039086;28;20017;-68
2022/07/28 01:35:19;;;;;;;1.73;0.70;;;22.40;99.90;;;;;;1038844;28;20912;-68
2022/07/28 01:36:01;;;;;;;2.05;0.70;;;22.40;99.90;;;;;;1039027;28;20021;-68
2022/07/28 01:36:37;;;;;;;1.42;1.00;;;22.40;99.90;;;;;;1039421;28;20624;-68
2022/07/28 01:37:16;;;;;;;1.10;0.80;;;22.40;99.90;;;;;;1038983;28;20067;-68
2022/07/28 01:37:48;;;;;;;;;;;22.40;99.90;;;;;;1039573;28;20033;-69
2022/07/28 01:38:21;;;;;;;2.13;0.70;;;22.40;99.90;;;;;;1039249;28;19905;-69
2022/07/28 01:38:52;;;;;;;1.27;0.90;;;22.40;99.90;;;;;;1039093;28;20369;-69
2022/07/28 01:39:32;;;;;;;1.90;0.90;;;22.40;99.90;;;;;;1039345;28;20014;-69
2022/07/28 01:40:06;;;;;;;0.65;0.60;;;22.40;99.90;;;;;;1038654;28;20037;-68
2022/07/28 01:40:39;;;;;;;1.65;0.75;;;22.40;99.90;;;;;;1039068;28;20029;-70
2022/07/28 01:41:18;;;;;;;2.90;1.08;;;22.40;99.90;;;;;;1038594;28;20018;-69
2022/07/28 01:41:50;;;;;;;;;;;22.50;99.90;;;;;;1039566;28;20026;-71
2022/07/28 01:42:25;;;;;;;2.05;0.80;;;22.40;99.90;;;;;;1039103;28;19919;-70
2022/07/28 01:42:58;;;;;;;1.30;0.63;;;22.40;99.90;;;;;;1039264;28;20045;-70
2022/07/28 01:43:33;;;;;;;0.70;0.60;;;22.40;99.90;;;;;;1038717;28;20022;-70
2022/07/28 01:44:11;;;;;;;1.80;0.75;;;22.40;99.90;;;;;;1038896;28;20079;-69
2022/07/28 01:44:45;;;;;;;0.80;0.70;;;22.40;99.90;;;;;;1040939;28;20029;-69
2022/07/28 01:45:18;;;;;;;1.25;0.65;;;22.40;99.90;;;;;;1040671;28;20384;-70
2022/07/28 01:45:50;;;;;;;2.08;0.70;;;22.40;99.90;;;;;;1042915;28;20017;-69
2022/07/28 01:46:21;;;;;;;1.10;0.70;;;22.40;99.90;;;;;;1042846;28;20013;-68
2022/07/28 01:46:55;;;;;;;1.02;0.68;;;22.40;99.90;;;;;;1038794;28;20048;-69
2022/07/28 01:47:28;;;;;;;1.95;0.80;;;22.40;99.90;;;;;;1039478;28;20010;-68
2022/07/28 01:48:00;;;;;;;1.95;0.70;;;22.40;99.90;;;;;;1038690;28;20437;-70
2022/07/28 01:48:33;;;;;;;1.60;0.90;;;22.40;99.90;;;;;;1039863;28;20076;-70
2022/07/28 01:49:06;;;;;;;0.73;0.60;;;22.30;99.90;;;;;;1043107;28;20032;-69
2022/07/28 01:49:37;;;;;;;2.13;0.85;;;22.30;99.90;;;;;;1042930;28;20070;-70
2022/07/28 01:50:10;;;;;;;3.67;0.80;;;22.30;99.90;;;;;;1043515;28;20020;-69
2022/07/28 01:50:42;;;;;;;1.50;0.60;;;22.30;99.90;;;;;;1043177;28;20039;-70
2022/07/28 01:51:15;;;;;;;1.08;0.60;;;22.30;99.90;;;;;;1043516;28;20035;-69
2022/07/28 01:51:46;;;;;;;1.48;0.88;;;22.30;99.90;;;;;;1042591;28;20013;-68
2022/07/28 01:52:18;;;;;;;1.27;0.80;;;22.30;99.90;;;;;;1043143;28;20028;-69
2022/07/28 01:52:50;;;;;;;1.20;0.70;;;22.30;99.90;;;;;;1042634;28;20028;-69
2022/07/28 01:53:22;;;;;;;1.08;0.77;;;22.30;99.90;;;;;;1043108;28;20017;-69
2022/07/28 01:53:55;;;;;;;1.67;0.75;;;22.30;99.90;;;;;;1042875;28;20484;-69
2022/07/28 01:54:27;;;;;;;1.33;0.88;;;22.30;99.90;;;;;;1043601;28;20013;-68
2022/07/28 01:55:01;;;;;;;0.85;0.70;;;22.30;99.90;;;;;;1042704;28;20025;-68
2022/07/28 01:55:34;;;;;;;1.52;0.80;;;22.30;99.90;;;;;;1043489;28;20067;-69
2022/07/28 01:56:06;;;;;;;1.02;0.70;;;22.30;99.90;;;;;;1043060;28;20017;-66
2022/07/28 01:56:39;;;;;;;3.72;1.00;;;22.30;99.90;;;;;;1038905;28;20031;-68
2022/07/28 01:57:13;;;;;;;1.42;0.80;;;22.30;99.90;;;;;;1038575;28;20026;-68
2022/07/28 01:57:46;;;;;;;0.70;0.63;;;22.20;99.90;;;;;;1038937;28;20338;-67
2022/07/28 01:58:20;;;;;;;1.88;0.82;;;22.20;99.90;;;;;;1040152;28;20056;-68
2022/07/28 01:58:56;;;;;;;3.15;0.88;;;22.20;99.90;;;;;;1042819;28;20605;-68
2022/07/28 01:59:29;;;;;;;1.33;0.77;;;22.20;99.90;;;;;;1042986;28;20028;-68
2022/07/28 02:00:01;;;;;;;2.83;0.85;;;22.20;99.90;;;;;;1042690;28;20024;-68
2022/07/28 02:00:32;;;;;;;1.02;0.80;;;22.20;99.90;;;;;;1043167;28;20017;-69
2022/07/28 02:01:04;;;;;;;2.22;1.10;;;22.20;99.90;;;;;;1043199;28;20027;-69
2022/07/28 02:01:41;;;;;;;2.00;1.05;;;22.20;99.90;;;;;;1043278;28;20096;-69
2022/07/28 02:02:16;;;;;;;1.45;0.93;;;22.20;99.90;;;;;;1039585;28;20020;-69
2022/07/28 02:02:49;;;;;;;0.55;0.50;;;22.20;99.90;;;;;;1038750;28;20033;-69
2022/07/28 02:03:24;;;;;;;0.95;0.85;;;22.20;99.90;;;;;;1038684;28;20025;-69
2022/07/28 02:03:56;;;;;;;1.13;0.80;;;22.20;99.90;;;;;;1038869;28;20463;-70
2022/07/28 02:04:28;;;;;;;2.25;0.90;;;22.20;99.90;;;;;;1035735;28;20354;-68
2022/07/28 02:05:01;;;;;;;1.40;0.70;;;22.20;99.90;;;;;;1038996;28;20396;-69
2022/07/28 02:05:34;;;;;;;0.93;0.63;;;22.20;99.90;;;;;;1038794;28;20409;-68
2022/07/28 02:06:06;;;;;;;1.27;0.88;;;22.20;99.90;;;;;;1038887;28;20025;-71
2022/07/28 02:06:39;;;;;;;1.25;0.90;;;22.10;99.90;;;;;;1039125;28;20018;-69
2022/07/28 02:07:11;;;;;;;1.05;0.75;;;22.10;99.90;;;;;;1039174;28;20551;-69
2022/07/28 02:07:43;;;;;;;1.52;1.15;;;22.10;99.90;;;;;;1039074;28;20079;-69
2022/07/28 02:08:17;;;;;;;1.75;0.95;;;22.10;99.90;;;;;;1038675;28;20013;-68
2022/07/28 02:08:49;;;;;;;1.13;0.80;;;22.00;99.90;;;;;;1038713;28;20021;-69
2022/07/28 02:09:21;;;;;;;1.67;0.90;;;22.00;99.90;;;;;;1038955;28;20076;-68
2022/07/28 02:09:53;;;;;;;0.70;0.70;;;22.10;99.90;;;;;;1041548;28;20321;-69
2022/07/28 02:10:25;;;;;;;1.52;0.77;;;22.10;99.90;;;;;;1043197;28;20434;-68
2022/07/28 02:11:49;;;;;;;4.25;1.38;;;22.10;99.90;;;;;;1042995;28;20039;-69
2022/07/28 02:12:21;;;;;;;1.33;0.90;;;22.10;99.90;;;;;;1043489;28;20600;-70
2022/07/28 02:12:53;;;;;;;2.50;0.95;;;22.10;99.90;;;;;;1043046;28;20534;-70
2022/07/28 02:13:24;;;;;;;1.15;0.68;;;22.10;99.90;;;;;;1042791;28;20013;-69
2022/07/28 02:13:56;;;;;;;1.50;1.10;;;22.10;99.90;;;;;;1042489;28;20674;-69
2022/07/28 02:14:28;;;;;;;1.25;0.85;;;22.10;99.90;;;;;;1043025;28;20017;-69
2022/07/28 02:14:59;;;;;;;2.38;0.80;;;22.10;99.90;;;;;;1042587;28;20028;-69
2022/07/28 02:15:31;;;;;;;2.60;0.90;;;22.10;99.90;;;;;;1043346;28;20522;-70
2022/07/28 02:16:05;;;;;;;1.33;0.90;;;22.10;99.90;;;;;;1042952;28;20603;-69
2022/07/28 02:16:39;;;;;;;0.82;0.73;;;22.20;99.90;;;;;;1043341;28;20491;-68
2022/07/28 02:17:13;;;;;;;1.73;1.00;;;22.20;99.90;;;;;;1041081;28;20017;-69
2022/07/28 02:17:45;;;;;;;1.27;0.70;;;22.20;99.90;;;;;;1039189;28;20038;-69
2022/07/28 02:18:16;;;;;;;0.98;0.82;;;22.20;99.90;;;;;;1039023;28;20440;-69
2022/07/28 02:18:48;;;;;;;0.90;0.80;;;22.20;99.90;;;;;;1039048;28;20429;-67
2022/07/28 02:19:20;;;;;;;1.48;0.80;;;22.20;99.90;;;;;;1038661;28;20021;-69
2022/07/28 02:19:53;;;;;;;1.00;0.63;;;22.20;99.90;;;;;;1038578;28;20021;-70
2022/07/28 02:20:24;;;;;;;2.42;0.90;;;22.20;99.90;;;;;;1038923;28;20021;-69
2022/07/28 02:20:55;;;;;;;2.92;0.77;;;22.20;99.90;;;;;;1038534;28;20036;-68
2022/07/28 02:21:28;;;;;;;1.30;0.93;;;22.20;99.90;;;;;;1038888;28;20121;-68
2022/07/28 02:22:01;;;;;;;1.98;1.27;;;22.20;99.90;;;;;;1038626;28;20014;-68
2022/07/28 02:22:34;;;;;;;2.80;1.30;;;22.20;99.90;;;;;;1038921;28;20018;-68
2022/07/28 02:23:07;;;;;;;1.98;0.95;;;22.20;99.90;;;;;;1038714;28;20092;-69
2022/07/28 02:23:39;;;;;;;1.58;0.80;;;22.20;99.90;;;;;;1039016;28;20559;-67
2022/07/28 02:24:11;;;;;;;1.25;1.00;;;22.10;99.90;;;;;;1038794;28;20022;-68
2022/07/28 02:24:45;;;;;;;1.23;0.80;;;22.10;99.90;;;;;;1039178;28;20026;-67
2022/07/28 02:25:16;;;;;;;0.82;0.68;;;22.10;99.90;;;;;;1039017;28;20024;-68
2022/07/28 02:25:48;;;;;;;1.17;0.70;;;22.10;99.90;;;;;;1038662;28;20481;-67
2022/07/28 02:26:26;;;;;;;2.15;1.00;;;22.10;99.90;;;;;;1038679;28;20022;-68
2022/07/28 02:27:05;;;;;;;1.70;0.90;;;22.10;99.90;;;;;;1038744;28;20026;-70
2022/07/28 02:27:45;;;;;;;2.08;1.00;;;22.10;99.90;;;;;;1038786;28;20113;-69
2022/07/28 02:28:20;;;;;;;1.77;0.95;;;22.10;99.90;;;;;;1039076;28;20022;-68
2022/07/28 02:28:55;;;;;;;1.20;0.60;;;22.10;99.90;;;;;;1038940;28;20023;-69
2022/07/28 02:29:29;;;;;;;1.10;0.70;;;22.10;99.90;;;;;;1038825;28;20033;-67
2022/07/28 02:30:29;;;;;;;1.85;1.00;;;22.00;99.90;;;;;;1038799;28;20636;-69
2022/07/28 02:31:17;;;;;;;2.15;0.90;;;22.00;99.90;;;;;;1038318;28;20037;-71
2022/07/28 02:32:11;;;;;;;1.63;1.00;;;22.10;99.90;;;;;;1038781;28;20030;-69
2022/07/28 02:32:49;;;;;;;2.22;1.05;;;22.00;99.90;;;;;;1039083;28;20026;-69
2022/07/28 02:33:22;;;;;;;;;;;22.00;99.90;;;;;;1039896;28;20118;-72
2022/07/28 02:33:59;;;;;;;1.25;0.80;;;22.00;99.90;;;;;;1038832;28;20036;-69
2022/07/28 02:34:35;;;;;;;1.27;1.02;;;22.00;99.90;;;;;;1039202;28;20087;-68
2022/07/28 02:35:23;;;;;;;0.77;0.68;;;22.00;99.90;;;;;;1039000;28;20025;-70
2022/07/28 02:36:14;;;;;;;;;;;22.00;99.90;;;;;;1039620;28;20026;-71
2022/07/28 02:36:58;;;;;;;1.55;0.90;;;22.00;99.90;;;;;;1038505;28;19928;-68
2022/07/28 02:37:36;;;;;;;0.70;0.70;;;22.00;99.90;;;;;;1039216;28;20025;-69
2022/07/28 02:38:12;;;;;;;1.42;1.00;;;21.90;99.90;;;;;;1038899;28;20806;-69
2022/07/28 02:38:45;;;;;;;1.52;1.05;;;21.90;99.90;;;;;;1039158;28;20838;-68
2022/07/28 02:39:22;;;;;;;1.25;0.73;;;21.90;99.90;;;;;;1038967;28;20104;-69
2022/07/28 02:39:56;;;;;;;1.08;0.85;;;21.90;99.90;;;;;;1038452;28;20177;-68
2022/07/28 02:40:33;;;;;;;1.38;0.85;;;21.90;99.90;;;;;;1038800;28;20111;-69
2022/07/28 02:41:14;;;;;;;2.75;0.90;;;21.90;99.90;;;;;;1041470;28;20190;-69
2022/07/28 02:41:49;;;;;;;1.27;0.77;;;21.90;99.90;;;;;;1042917;28;20029;-67
2022/07/28 02:42:27;;;;;;;1.10;0.80;;;21.90;99.90;;;;;;1042696;28;20028;-71
2022/07/28 02:42:58;;;;;;;2.13;0.95;;;21.90;99.90;;;;;;1043108;28;20024;-68
2022/07/28 02:43:31;;;;;;;2.53;0.93;;;21.90;99.90;;;;;;1042748;28;20050;-70
2022/07/28 02:44:10;;;;;;;2.08;0.90;;;21.90;99.90;;;;;;1042717;28;20052;-69
2022/07/28 02:44:45;;;;;;;2.38;0.98;;;21.90;99.90;;;;;;1038640;28;20025;-68
2022/07/28 02:45:19;;;;;;;1.90;0.95;;;21.90;99.90;;;;;;1040732;28;20021;-68
2022/07/28 02:45:54;;;;;;;2.10;1.20;;;21.90;99.90;;;;;;1042796;28;20124;-70
2022/07/28 02:46:31;;;;;;;1.65;1.00;;;21.90;99.90;;;;;;1043073;28;20188;-69
2022/07/28 02:47:07;;;;;;;1.45;0.90;;;21.80;99.90;;;;;;1043079;28;20023;-69
2022/07/28 02:47:44;;;;;;;1.45;0.80;;;21.90;99.90;;;;;;1043133;28;20025;-71
2022/07/28 02:48:22;;;;;;;1.33;1.02;;;21.80;99.90;;;;;;1042957;28;20021;-70
2022/07/28 02:48:59;;;;;;;1.02;0.63;;;21.80;99.90;;;;;;1043163;28;20546;-71
2022/07/28 02:49:32;;;;;;;1.77;0.90;;;21.80;99.90;;;;;;1042556;28;20524;-71
2022/07/28 02:50:05;;;;;;;3.42;0.93;;;21.80;99.90;;;;;;1042693;28;20059;-71
2022/07/28 02:50:39;;;;;;;2.60;1.08;;;21.80;99.90;;;;;;1042314;28;20124;-70
2022/07/28 02:51:12;;;;;;;2.17;1.23;;;21.90;99.90;;;;;;1042595;28;20017;-74
2022/07/28 02:51:44;;;;;;;2.22;0.90;;;21.90;99.90;;;;;;1042568;28;20040;-70
2022/07/28 02:52:16;;;;;;;1.42;0.85;;;21.90;99.90;;;;;;1042934;28;20009;-71
2022/07/28 02:52:48;;;;;;;1.15;0.80;;;21.90;99.90;;;;;;1042583;28;20021;-69
2022/07/28 02:53:22;;;;;;;1.33;0.95;;;21.90;99.90;;;;;;1043190;28;20101;-70
2022/07/28 02:53:53;;;;;;;1.63;1.00;;;21.90;99.90;;;;;;1042946;28;20017;-71
2022/07/28 02:54:26;;;;;;;1.40;0.80;;;21.90;99.90;;;;;;1043297;28;20118;-70
2022/07/28 02:54:58;;;;;;;1.05;0.82;;;21.90;99.90;;;;;;1042120;28;20759;-70
2022/07/28 02:55:29;;;;;;;1.10;1.00;;;21.90;99.90;;;;;;1042814;28;20521;-70
2022/07/28 02:56:02;;;;;;;1.15;0.88;;;21.90;99.90;;;;;;1042563;28;20005;-71
2022/07/28 02:56:33;;;;;;;1.38;0.90;;;21.90;99.90;;;;;;1043061;28;20112;-71
2022/07/28 02:57:05;;;;;;;1.15;0.80;;;21.90;99.90;;;;;;1042864;28;20009;-71
2022/07/28 02:57:38;;;;;;;1.23;0.73;;;21.90;99.90;;;;;;1042917;28;20017;-71
2022/07/28 02:58:10;;;;;;;2.08;0.70;;;21.90;99.90;;;;;;1042536;28;20037;-71
2022/07/28 02:58:41;;;;;;;1.80;0.88;;;21.90;99.90;;;;;;1042764;28;20017;-68
2022/07/28 02:59:13;;;;;;;2.15;0.90;;;21.90;99.90;;;;;;1042692;28;20013;-70
2022/07/28 02:59:44;;;;;;;1.35;0.88;;;21.90;99.90;;;;;;1041633;28;20009;-70
2022/07/28 03:00:15;;;;;;;1.77;0.88;;;21.90;99.90;;;;;;1038315;28;20578;-70
2022/07/28 03:00:48;;;;;;;3.23;1.03;;;21.90;99.90;;;;;;1038801;28;20572;-68
2022/07/28 03:01:20;;;;;;;1.00;0.82;;;21.80;99.90;;;;;;1038470;28;20009;-70
2022/07/28 03:01:53;;;;;;;1.65;0.88;;;21.80;99.90;;;;;;1038214;28;20098;-68